sensor_id;sensor_type;location;lat;lon;timestamp;P1;durP1;ratioP1;P2;durP2;ratioP2
54139;SDS011;40046;53.254;5.900;2023-09-08T00:01:01;11.95;;;8.48;;
54139;SDS011;40046;53.254;5.900;2023-09-08T00:03:27;12.82;;;8.65;;
54139;SDS011;40046;53.254;5.900;2023-09-08T00:05:53;14.55;;;8.73;;
54139;SDS011;40046;53.254;5.900;2023-09-08T00:08:19;12.40;;;8.30;;
54139;SDS011;40046;53.254;5.900;2023-09-08T00:10:46;10.80;;;8.50;;
54139;SDS011;40046;53.254;5.900;2023-09-08T00:13:12;15.68;;;8.82;;
54139;SDS011;40046;53.254;5.900;2023-09-08T00:15:38;10.88;;;8.35;;
54139;SDS011;40046;53.254;5.900;2023-09-08T00:18:04;10.98;;;7.97;;
54139;SDS011;40046;53.254;5.900;2023-09-08T00:20:30;10.57;;;7.60;;
54139;SDS011;40046;53.254;5.900;2023-09-08T00:22:56;12.57;;;8.30;;
54139;SDS011;40046;53.254;5.900;2023-09-08T00:25:22;13.73;;;8.98;;
54139;SDS011;40046;53.254;5.900;2023-09-08T00:27:48;9.90;;;8.27;;
54139;SDS011;40046;53.254;5.900;2023-09-08T00:30:15;10.88;;;8.00;;
54139;SDS011;40046;53.254;5.900;2023-09-08T00:32:41;10.88;;;9.05;;
54139;SDS011;40046;53.254;5.900;2023-09-08T00:35:07;10.43;;;8.43;;
54139;SDS011;40046;53.254;5.900;2023-09-08T00:37:36;10.63;;;9.02;;
54139;SDS011;40046;53.254;5.900;2023-09-08T00:40:02;9.43;;;8.43;;
54139;SDS011;40046;53.254;5.900;2023-09-08T00:42:28;10.30;;;9.27;;
54139;SDS011;40046;53.254;5.900;2023-09-08T00:44:55;11.13;;;9.05;;
54139;SDS011;40046;53.254;5.900;2023-09-08T00:47:21;10.20;;;8.18;;
54139;SDS011;40046;53.254;5.900;2023-09-08T00:49:47;11.43;;;8.20;;
54139;SDS011;40046;53.254;5.900;2023-09-08T00:52:14;10.00;;;7.90;;
54139;SDS011;40046;53.254;5.900;2023-09-08T00:54:40;9.90;;;8.90;;
54139;SDS011;40046;53.254;5.900;2023-09-08T00:57:06;9.48;;;8.57;;
54139;SDS011;40046;53.254;5.900;2023-09-08T00:59:33;9.57;;;8.25;;
54139;SDS011;40046;53.254;5.900;2023-09-08T01:01:59;9.50;;;8.60;;
54139;SDS011;40046;53.254;5.900;2023-09-08T01:04:26;10.32;;;8.82;;
54139;SDS011;40046;53.254;5.900;2023-09-08T01:06:52;9.80;;;8.80;;
54139;SDS011;40046;53.254;5.900;2023-09-08T01:09:19;11.95;;;9.20;;
54139;SDS011;40046;53.254;5.900;2023-09-08T01:11:45;11.45;;;9.23;;
54139;SDS011;40046;53.254;5.900;2023-09-08T01:14:17;8.93;;;8.07;;
54139;SDS011;40046;53.254;5.900;2023-09-08T01:16:44;10.10;;;8.93;;
54139;SDS011;40046;53.254;5.900;2023-09-08T01:19:11;9.52;;;8.52;;
54139;SDS011;40046;53.254;5.900;2023-09-08T01:26:52;15.20;;;8.95;;
54139;SDS011;40046;53.254;5.900;2023-09-08T01:29:18;11.23;;;8.85;;
54139;SDS011;40046;53.254;5.900;2023-09-08T01:31:45;11.80;;;9.23;;
54139;SDS011;40046;53.254;5.900;2023-09-08T01:34:12;10.30;;;8.93;;
54139;SDS011;40046;53.254;5.900;2023-09-08T01:36:39;11.18;;;9.98;;
54139;SDS011;40046;53.254;5.900;2023-09-08T01:39:05;15.60;;;9.18;;
54139;SDS011;40046;53.254;5.900;2023-09-08T01:41:31;9.77;;;8.77;;
54139;SDS011;40046;53.254;5.900;2023-09-08T01:43:58;11.43;;;9.73;;
54139;SDS011;40046;53.254;5.900;2023-09-08T01:46:24;15.77;;;10.70;;
54139;SDS011;40046;53.254;5.900;2023-09-08T01:48:50;10.75;;;9.50;;
54139;SDS011;40046;53.254;5.900;2023-09-08T01:51:16;12.43;;;11.05;;
54139;SDS011;40046;53.254;5.900;2023-09-08T01:53:42;11.00;;;9.90;;
54139;SDS011;40046;53.254;5.900;2023-09-08T01:56:09;11.60;;;10.50;;
54139;SDS011;40046;53.254;5.900;2023-09-08T01:58:35;12.73;;;11.00;;
54139;SDS011;40046;53.254;5.900;2023-09-08T02:01:01;12.43;;;10.43;;
54139;SDS011;40046;53.254;5.900;2023-09-08T02:03:34;15.35;;;9.82;;
54139;SDS011;40046;53.254;5.900;2023-09-08T02:06:00;13.65;;;11.50;;
54139;SDS011;40046;53.254;5.900;2023-09-08T02:08:26;11.40;;;9.93;;
54139;SDS011;40046;53.254;5.900;2023-09-08T02:10:52;14.98;;;11.43;;
54139;SDS011;40046;53.254;5.900;2023-09-08T02:13:18;11.63;;;9.48;;
54139;SDS011;40046;53.254;5.900;2023-09-08T02:15:44;12.75;;;10.60;;
54139;SDS011;40046;53.254;5.900;2023-09-08T02:18:10;12.18;;;10.05;;
54139;SDS011;40046;53.254;5.900;2023-09-08T02:20:39;12.27;;;10.80;;
54139;SDS011;40046;53.254;5.900;2023-09-08T02:23:05;11.98;;;10.68;;
54139;SDS011;40046;53.254;5.900;2023-09-08T02:25:33;13.20;;;10.75;;
54139;SDS011;40046;53.254;5.900;2023-09-08T02:27:59;11.90;;;10.70;;
54139;SDS011;40046;53.254;5.900;2023-09-08T02:30:25;13.40;;;10.30;;
54139;SDS011;40046;53.254;5.900;2023-09-08T02:32:52;16.13;;;10.73;;
54139;SDS011;40046;53.254;5.900;2023-09-08T02:35:20;12.18;;;10.88;;
54139;SDS011;40046;53.254;5.900;2023-09-08T02:37:47;11.10;;;9.93;;
54139;SDS011;40046;53.254;5.900;2023-09-08T02:40:13;12.43;;;11.07;;
54139;SDS011;40046;53.254;5.900;2023-09-08T02:42:39;12.40;;;11.15;;
54139;SDS011;40046;53.254;5.900;2023-09-08T02:45:06;11.50;;;10.30;;
54139;SDS011;40046;53.254;5.900;2023-09-08T02:47:32;12.07;;;10.13;;
54139;SDS011;40046;53.254;5.900;2023-09-08T02:49:59;12.00;;;10.77;;
54139;SDS011;40046;53.254;5.900;2023-09-08T02:52:25;13.98;;;10.35;;
54139;SDS011;40046;53.254;5.900;2023-09-08T02:54:51;16.20;;;11.95;;
54139;SDS011;40046;53.254;5.900;2023-09-08T02:57:17;11.75;;;10.55;;
54139;SDS011;40046;53.254;5.900;2023-09-08T02:59:48;14.50;;;11.27;;
54139;SDS011;40046;53.254;5.900;2023-09-08T03:02:14;12.65;;;11.32;;
54139;SDS011;40046;53.254;5.900;2023-09-08T03:04:40;14.48;;;12.70;;
54139;SDS011;40046;53.254;5.900;2023-09-08T03:07:07;12.35;;;11.00;;
54139;SDS011;40046;53.254;5.900;2023-09-08T03:09:34;16.15;;;11.48;;
54139;SDS011;40046;53.254;5.900;2023-09-08T03:12:00;12.43;;;11.20;;
54139;SDS011;40046;53.254;5.900;2023-09-08T03:14:28;18.08;;;11.52;;
54139;SDS011;40046;53.254;5.900;2023-09-08T03:16:58;12.45;;;11.00;;
54139;SDS011;40046;53.254;5.900;2023-09-08T03:19:24;13.25;;;11.77;;
54139;SDS011;40046;53.254;5.900;2023-09-08T03:21:50;13.00;;;11.07;;
54139;SDS011;40046;53.254;5.900;2023-09-08T03:24:17;14.43;;;11.85;;
54139;SDS011;40046;53.254;5.900;2023-09-08T03:26:43;14.98;;;12.20;;
54139;SDS011;40046;53.254;5.900;2023-09-08T03:29:09;13.85;;;11.00;;
54139;SDS011;40046;53.254;5.900;2023-09-08T03:31:36;13.70;;;12.27;;
54139;SDS011;40046;53.254;5.900;2023-09-08T03:34:02;13.38;;;11.98;;
54139;SDS011;40046;53.254;5.900;2023-09-08T03:36:28;15.88;;;12.88;;
54139;SDS011;40046;53.254;5.900;2023-09-08T03:38:56;12.27;;;11.07;;
54139;SDS011;40046;53.254;5.900;2023-09-08T03:41:24;13.40;;;11.93;;
54139;SDS011;40046;53.254;5.900;2023-09-08T03:43:50;16.50;;;11.48;;
54139;SDS011;40046;53.254;5.900;2023-09-08T03:46:16;15.50;;;12.82;;
54139;SDS011;40046;53.254;5.900;2023-09-08T03:48:42;14.95;;;11.77;;
54139;SDS011;40046;53.254;5.900;2023-09-08T03:51:08;13.50;;;12.10;;
54139;SDS011;40046;53.254;5.900;2023-09-08T03:53:35;13.75;;;11.93;;
54139;SDS011;40046;53.254;5.900;2023-09-08T03:56:01;13.68;;;11.27;;
54139;SDS011;40046;53.254;5.900;2023-09-08T03:58:27;20.70;;;12.50;;
54139;SDS011;40046;53.254;5.900;2023-09-08T04:00:54;13.60;;;12.20;;
54139;SDS011;40046;53.254;5.900;2023-09-08T04:03:20;13.82;;;12.52;;
54139;SDS011;40046;53.254;5.900;2023-09-08T04:05:46;13.75;;;12.48;;
54139;SDS011;40046;53.254;5.900;2023-09-08T04:08:12;13.43;;;11.98;;
54139;SDS011;40046;53.254;5.900;2023-09-08T04:10:39;13.23;;;11.85;;
54139;SDS011;40046;53.254;5.900;2023-09-08T04:13:05;17.23;;;12.88;;
54139;SDS011;40046;53.254;5.900;2023-09-08T04:15:32;14.93;;;13.32;;
54139;SDS011;40046;53.254;5.900;2023-09-08T04:17:58;14.30;;;12.45;;
54139;SDS011;40046;53.254;5.900;2023-09-08T04:20:24;15.15;;;13.65;;
54139;SDS011;40046;53.254;5.900;2023-09-08T04:22:51;14.00;;;12.60;;
54139;SDS011;40046;53.254;5.900;2023-09-08T04:25:17;17.83;;;13.40;;
54139;SDS011;40046;53.254;5.900;2023-09-08T04:27:43;14.82;;;13.32;;
54139;SDS011;40046;53.254;5.900;2023-09-08T04:30:10;13.98;;;12.13;;
54139;SDS011;40046;53.254;5.900;2023-09-08T04:32:36;14.85;;;13.32;;
54139;SDS011;40046;53.254;5.900;2023-09-08T04:35:03;14.10;;;12.63;;
54139;SDS011;40046;53.254;5.900;2023-09-08T04:37:29;13.05;;;11.85;;
54139;SDS011;40046;53.254;5.900;2023-09-08T04:39:56;13.75;;;12.32;;
54139;SDS011;40046;53.254;5.900;2023-09-08T04:42:22;15.18;;;13.77;;
54139;SDS011;40046;53.254;5.900;2023-09-08T04:44:49;14.60;;;13.00;;
54139;SDS011;40046;53.254;5.900;2023-09-08T04:47:15;15.07;;;13.57;;
54139;SDS011;40046;53.254;5.900;2023-09-08T04:49:41;14.38;;;12.73;;
54139;SDS011;40046;53.254;5.900;2023-09-08T04:52:08;17.17;;;12.38;;
54139;SDS011;40046;53.254;5.900;2023-09-08T04:54:37;14.50;;;13.05;;
54139;SDS011;40046;53.254;5.900;2023-09-08T04:57:03;13.95;;;12.15;;
54139;SDS011;40046;53.254;5.900;2023-09-08T04:59:29;17.35;;;13.73;;
54139;SDS011;40046;53.254;5.900;2023-09-08T05:01:57;15.68;;;13.55;;
54139;SDS011;40046;53.254;5.900;2023-09-08T05:04:23;14.90;;;13.50;;
54139;SDS011;40046;53.254;5.900;2023-09-08T05:06:49;13.57;;;12.18;;
54139;SDS011;40046;53.254;5.900;2023-09-08T05:09:17;14.93;;;12.55;;
54139;SDS011;40046;53.254;5.900;2023-09-08T05:11:43;14.93;;;13.48;;
54139;SDS011;40046;53.254;5.900;2023-09-08T05:14:09;15.07;;;13.50;;
54139;SDS011;40046;53.254;5.900;2023-09-08T05:16:36;14.70;;;13.27;;
54139;SDS011;40046;53.254;5.900;2023-09-08T05:19:07;15.68;;;13.73;;
54139;SDS011;40046;53.254;5.900;2023-09-08T05:21:34;14.98;;;13.40;;
54139;SDS011;40046;53.254;5.900;2023-09-08T05:24:03;21.55;;;13.23;;
54139;SDS011;40046;53.254;5.900;2023-09-08T05:26:30;15.15;;;13.57;;
54139;SDS011;40046;53.254;5.900;2023-09-08T05:28:57;14.43;;;13.05;;
54139;SDS011;40046;53.254;5.900;2023-09-08T05:31:23;14.13;;;12.70;;
54139;SDS011;40046;53.254;5.900;2023-09-08T05:33:51;13.82;;;12.40;;
54139;SDS011;40046;53.254;5.900;2023-09-08T05:36:17;15.00;;;13.23;;
54139;SDS011;40046;53.254;5.900;2023-09-08T05:38:44;17.10;;;13.63;;
54139;SDS011;40046;53.254;5.900;2023-09-08T05:41:10;15.63;;;14.02;;
54139;SDS011;40046;53.254;5.900;2023-09-08T05:43:36;14.68;;;12.73;;
54139;SDS011;40046;53.254;5.900;2023-09-08T05:46:02;15.18;;;13.52;;
54139;SDS011;40046;53.254;5.900;2023-09-08T05:48:29;14.43;;;12.65;;
54139;SDS011;40046;53.254;5.900;2023-09-08T05:50:57;16.70;;;14.18;;
54139;SDS011;40046;53.254;5.900;2023-09-08T05:53:24;13.82;;;12.52;;
54139;SDS011;40046;53.254;5.900;2023-09-08T05:55:51;15.05;;;13.48;;
54139;SDS011;40046;53.254;5.900;2023-09-08T05:58:18;14.02;;;12.60;;
54139;SDS011;40046;53.254;5.900;2023-09-08T06:00:44;14.48;;;13.02;;
54139;SDS011;40046;53.254;5.900;2023-09-08T06:03:10;17.40;;;14.00;;
54139;SDS011;40046;53.254;5.900;2023-09-08T06:05:36;16.10;;;13.40;;
54139;SDS011;40046;53.254;5.900;2023-09-08T06:08:04;14.05;;;12.52;;
54139;SDS011;40046;53.254;5.900;2023-09-08T06:10:30;14.68;;;13.20;;
54139;SDS011;40046;53.254;5.900;2023-09-08T06:12:57;15.63;;;13.98;;
54139;SDS011;40046;53.254;5.900;2023-09-08T06:15:24;17.65;;;13.98;;
54139;SDS011;40046;53.254;5.900;2023-09-08T06:17:50;17.02;;;13.55;;
54139;SDS011;40046;53.254;5.900;2023-09-08T06:20:16;16.65;;;13.77;;
54139;SDS011;40046;53.254;5.900;2023-09-08T06:22:43;14.07;;;12.63;;
54139;SDS011;40046;53.254;5.900;2023-09-08T06:25:10;14.77;;;13.13;;
54139;SDS011;40046;53.254;5.900;2023-09-08T06:27:37;15.25;;;13.32;;
54139;SDS011;40046;53.254;5.900;2023-09-08T06:30:03;15.35;;;13.73;;
54139;SDS011;40046;53.254;5.900;2023-09-08T06:32:31;15.20;;;13.23;;
54139;SDS011;40046;53.254;5.900;2023-09-08T06:34:58;15.10;;;13.00;;
54139;SDS011;40046;53.254;5.900;2023-09-08T06:37:24;13.85;;;12.55;;
54139;SDS011;40046;53.254;5.900;2023-09-08T06:39:53;13.73;;;12.32;;
54139;SDS011;40046;53.254;5.900;2023-09-08T06:42:20;15.55;;;12.80;;
54139;SDS011;40046;53.254;5.900;2023-09-08T06:44:54;15.18;;;13.65;;
54139;SDS011;40046;53.254;5.900;2023-09-08T06:47:20;16.83;;;14.00;;
54139;SDS011;40046;53.254;5.900;2023-09-08T06:49:46;14.18;;;12.70;;
54139;SDS011;40046;53.254;5.900;2023-09-08T06:52:16;14.73;;;13.23;;
54139;SDS011;40046;53.254;5.900;2023-09-08T06:54:42;15.73;;;13.18;;
54139;SDS011;40046;53.254;5.900;2023-09-08T06:57:12;15.90;;;13.15;;
54139;SDS011;40046;53.254;5.900;2023-09-08T06:59:38;14.52;;;12.85;;
54139;SDS011;40046;53.254;5.900;2023-09-08T07:02:04;14.85;;;12.68;;
54139;SDS011;40046;53.254;5.900;2023-09-08T07:04:30;14.48;;;12.30;;
54139;SDS011;40046;53.254;5.900;2023-09-08T07:06:57;17.20;;;12.75;;
54139;SDS011;40046;53.254;5.900;2023-09-08T07:09:23;13.40;;;11.93;;
54139;SDS011;40046;53.254;5.900;2023-09-08T07:11:50;12.30;;;11.10;;
54139;SDS011;40046;53.254;5.900;2023-09-08T07:14:16;12.77;;;11.50;;
54139;SDS011;40046;53.254;5.900;2023-09-08T07:16:42;14.27;;;11.50;;
54139;SDS011;40046;53.254;5.900;2023-09-08T07:19:08;15.30;;;11.23;;
54139;SDS011;40046;53.254;5.900;2023-09-08T07:21:35;12.82;;;11.52;;
54139;SDS011;40046;53.254;5.900;2023-09-08T07:24:01;14.15;;;11.15;;
54139;SDS011;40046;53.254;5.900;2023-09-08T07:26:28;13.18;;;10.93;;
54139;SDS011;40046;53.254;5.900;2023-09-08T07:28:54;13.07;;;11.48;;
54139;SDS011;40046;53.254;5.900;2023-09-08T07:31:20;14.80;;;10.93;;
54139;SDS011;40046;53.254;5.900;2023-09-08T07:33:48;12.90;;;11.70;;
54139;SDS011;40046;53.254;5.900;2023-09-08T07:36:15;13.90;;;10.80;;
54139;SDS011;40046;53.254;5.900;2023-09-08T07:38:43;13.55;;;11.25;;
54139;SDS011;40046;53.254;5.900;2023-09-08T07:41:09;10.80;;;9.80;;
54139;SDS011;40046;53.254;5.900;2023-09-08T07:43:36;11.25;;;10.02;;
54139;SDS011;40046;53.254;5.900;2023-09-08T07:46:07;12.88;;;11.50;;
54139;SDS011;40046;53.254;5.900;2023-09-08T07:48:33;10.77;;;9.68;;
54139;SDS011;40046;53.254;5.900;2023-09-08T07:50:59;11.32;;;9.57;;
54139;SDS011;40046;53.254;5.900;2023-09-08T07:53:26;11.45;;;10.32;;
54139;SDS011;40046;53.254;5.900;2023-09-08T07:55:52;11.85;;;9.73;;
54139;SDS011;40046;53.254;5.900;2023-09-08T07:58:18;13.32;;;9.73;;
54139;SDS011;40046;53.254;5.900;2023-09-08T08:00:44;11.27;;;10.05;;
54139;SDS011;40046;53.254;5.900;2023-09-08T08:03:10;12.73;;;9.38;;
54139;SDS011;40046;53.254;5.900;2023-09-08T08:05:37;11.52;;;9.50;;
54139;SDS011;40046;53.254;5.900;2023-09-08T08:08:03;10.45;;;9.30;;
54139;SDS011;40046;53.254;5.900;2023-09-08T08:10:29;11.25;;;9.60;;
54139;SDS011;40046;53.254;5.900;2023-09-08T08:12:55;11.95;;;9.98;;
54139;SDS011;40046;53.254;5.900;2023-09-08T08:15:22;13.25;;;9.68;;
54139;SDS011;40046;53.254;5.900;2023-09-08T08:17:48;11.30;;;10.07;;
54139;SDS011;40046;53.254;5.900;2023-09-08T08:20:15;13.10;;;9.95;;
54139;SDS011;40046;53.254;5.900;2023-09-08T08:22:44;13.20;;;10.00;;
54139;SDS011;40046;53.254;5.900;2023-09-08T08:25:10;11.50;;;10.25;;
54139;SDS011;40046;53.254;5.900;2023-09-08T08:27:38;13.57;;;9.68;;
54139;SDS011;40046;53.254;5.900;2023-09-08T08:30:05;21.92;;;11.07;;
54139;SDS011;40046;53.254;5.900;2023-09-08T08:32:32;11.20;;;10.10;;
54139;SDS011;40046;53.254;5.900;2023-09-08T08:34:59;11.73;;;10.13;;
54139;SDS011;40046;53.254;5.900;2023-09-08T08:37:25;11.13;;;10.00;;
54139;SDS011;40046;53.254;5.900;2023-09-08T08:39:51;12.38;;;9.68;;
54139;SDS011;40046;53.254;5.900;2023-09-08T08:42:17;14.75;;;10.07;;
54139;SDS011;40046;53.254;5.900;2023-09-08T08:44:47;12.13;;;10.05;;
54139;SDS011;40046;53.254;5.900;2023-09-08T08:47:13;10.38;;;9.35;;
54139;SDS011;40046;53.254;5.900;2023-09-08T08:49:41;12.82;;;10.32;;
54139;SDS011;40046;53.254;5.900;2023-09-08T08:52:11;11.00;;;9.35;;
54139;SDS011;40046;53.254;5.900;2023-09-08T08:54:38;11.82;;;9.57;;
54139;SDS011;40046;53.254;5.900;2023-09-08T08:57:04;12.50;;;10.40;;
54139;SDS011;40046;53.254;5.900;2023-09-08T08:59:31;11.05;;;9.88;;
54139;SDS011;40046;53.254;5.900;2023-09-08T09:01:58;10.25;;;9.13;;
54139;SDS011;40046;53.254;5.900;2023-09-08T09:04:24;11.48;;;10.15;;
54139;SDS011;40046;53.254;5.900;2023-09-08T09:06:52;10.90;;;9.50;;
54139;SDS011;40046;53.254;5.900;2023-09-08T09:09:19;10.10;;;9.05;;
54139;SDS011;40046;53.254;5.900;2023-09-08T09:11:45;9.15;;;8.13;;
54139;SDS011;40046;53.254;5.900;2023-09-08T09:14:11;16.55;;;9.75;;
54139;SDS011;40046;53.254;5.900;2023-09-08T09:16:41;14.60;;;9.23;;
54139;SDS011;40046;53.254;5.900;2023-09-08T09:19:08;9.93;;;8.90;;
54139;SDS011;40046;53.254;5.900;2023-09-08T09:21:45;11.68;;;9.40;;
54139;SDS011;40046;53.254;5.900;2023-09-08T09:24:28;10.70;;;9.35;;
54139;SDS011;40046;53.254;5.900;2023-09-08T09:26:55;10.43;;;8.18;;
54139;SDS011;40046;53.254;5.900;2023-09-08T09:29:21;9.27;;;8.30;;
54139;SDS011;40046;53.254;5.900;2023-09-08T09:31:54;14.00;;;8.77;;
54139;SDS011;40046;53.254;5.900;2023-09-08T09:34:21;12.45;;;8.68;;
54139;SDS011;40046;53.254;5.900;2023-09-08T09:36:47;9.70;;;8.70;;
54139;SDS011;40046;53.254;5.900;2023-09-08T09:39:17;13.20;;;8.35;;
54139;SDS011;40046;53.254;5.900;2023-09-08T09:41:44;8.18;;;6.65;;
54139;SDS011;40046;53.254;5.900;2023-09-08T09:44:10;8.88;;;7.25;;
54139;SDS011;40046;53.254;5.900;2023-09-08T09:46:37;13.45;;;7.78;;
54139;SDS011;40046;53.254;5.900;2023-09-08T09:49:03;11.52;;;8.10;;
54139;SDS011;40046;53.254;5.900;2023-09-08T09:51:29;9.35;;;7.75;;
54139;SDS011;40046;53.254;5.900;2023-09-08T09:53:55;8.88;;;7.88;;
54139;SDS011;40046;53.254;5.900;2023-09-08T09:56:23;9.50;;;8.02;;
54139;SDS011;40046;53.254;5.900;2023-09-08T09:58:50;9.10;;;7.38;;
54139;SDS011;40046;53.254;5.900;2023-09-08T10:01:19;11.95;;;9.48;;
54139;SDS011;40046;53.254;5.900;2023-09-08T10:03:45;10.90;;;7.70;;
54139;SDS011;40046;53.254;5.900;2023-09-08T10:06:12;8.73;;;6.72;;
54139;SDS011;40046;53.254;5.900;2023-09-08T10:08:38;8.32;;;6.88;;
54139;SDS011;40046;53.254;5.900;2023-09-08T10:11:06;13.07;;;7.57;;
54139;SDS011;40046;53.254;5.900;2023-09-08T10:13:39;9.13;;;7.68;;
54139;SDS011;40046;53.254;5.900;2023-09-08T10:18:32;10.35;;;5.85;;
54139;SDS011;40046;53.254;5.900;2023-09-08T10:21:00;7.00;;;5.53;;
54139;SDS011;40046;53.254;5.900;2023-09-08T10:23:37;9.10;;;6.30;;
54139;SDS011;40046;53.254;5.900;2023-09-08T10:26:05;8.18;;;6.53;;
54139;SDS011;40046;53.254;5.900;2023-09-08T10:28:32;10.60;;;7.70;;
54139;SDS011;40046;53.254;5.900;2023-09-08T10:30:58;17.50;;;5.68;;
54139;SDS011;40046;53.254;5.900;2023-09-08T10:33:25;21.00;;;9.32;;
54139;SDS011;40046;53.254;5.900;2023-09-08T10:35:51;46.17;;;11.20;;
54139;SDS011;40046;53.254;5.900;2023-09-08T10:38:28;37.92;;;7.70;;
54139;SDS011;40046;53.254;5.900;2023-09-08T10:43:39;10.68;;;5.35;;
54139;SDS011;40046;53.254;5.900;2023-09-08T10:46:09;10.25;;;6.00;;
54139;SDS011;40046;53.254;5.900;2023-09-08T10:48:42;8.05;;;5.70;;
54139;SDS011;40046;53.254;5.900;2023-09-08T10:53:35;8.07;;;6.07;;
54139;SDS011;40046;53.254;5.900;2023-09-08T10:56:03;7.53;;;6.45;;
54139;SDS011;40046;53.254;5.900;2023-09-08T10:58:33;15.40;;;5.35;;
54139;SDS011;40046;53.254;5.900;2023-09-08T11:01:01;16.13;;;6.35;;
54139;SDS011;40046;53.254;5.900;2023-09-08T11:06:05;8.85;;;5.68;;
54139;SDS011;40046;53.254;5.900;2023-09-08T11:08:36;5.93;;;5.13;;
54139;SDS011;40046;53.254;5.900;2023-09-08T11:11:02;7.90;;;5.55;;
54139;SDS011;40046;53.254;5.900;2023-09-08T11:13:29;8.20;;;6.40;;
54139;SDS011;40046;53.254;5.900;2023-09-08T11:15:55;7.72;;;5.30;;
54139;SDS011;40046;53.254;5.900;2023-09-08T11:18:28;8.60;;;5.72;;
54139;SDS011;40046;53.254;5.900;2023-09-08T11:20:55;8.38;;;6.40;;
54139;SDS011;40046;53.254;5.900;2023-09-08T11:23:21;7.90;;;5.32;;
54139;SDS011;40046;53.254;5.900;2023-09-08T11:25:49;8.32;;;5.90;;
54139;SDS011;40046;53.254;5.900;2023-09-08T11:28:16;6.13;;;5.50;;
54139;SDS011;40046;53.254;5.900;2023-09-08T11:30:42;7.35;;;5.40;;
54139;SDS011;40046;53.254;5.900;2023-09-08T11:33:14;7.15;;;4.78;;
54139;SDS011;40046;53.254;5.900;2023-09-08T11:35:41;16.48;;;6.10;;
54139;SDS011;40046;53.254;5.900;2023-09-08T11:38:10;6.93;;;5.25;;
54139;SDS011;40046;53.254;5.900;2023-09-08T11:40:36;6.90;;;5.68;;
54139;SDS011;40046;53.254;5.900;2023-09-08T11:43:03;10.65;;;6.60;;
54139;SDS011;40046;53.254;5.900;2023-09-08T11:45:30;7.22;;;5.50;;
54139;SDS011;40046;53.254;5.900;2023-09-08T11:47:56;6.60;;;5.57;;
54139;SDS011;40046;53.254;5.900;2023-09-08T11:50:22;8.63;;;5.43;;
54139;SDS011;40046;53.254;5.900;2023-09-08T11:52:49;6.80;;;5.82;;
54139;SDS011;40046;53.254;5.900;2023-09-08T11:55:16;6.75;;;5.47;;
54139;SDS011;40046;53.254;5.900;2023-09-08T11:57:42;6.70;;;5.00;;
54139;SDS011;40046;53.254;5.900;2023-09-08T12:00:10;10.60;;;5.15;;
54139;SDS011;40046;53.254;5.900;2023-09-08T12:02:41;9.27;;;5.63;;
54139;SDS011;40046;53.254;5.900;2023-09-08T12:05:28;8.35;;;5.00;;
54139;SDS011;40046;53.254;5.900;2023-09-08T12:07:54;6.57;;;5.47;;
54139;SDS011;40046;53.254;5.900;2023-09-08T12:10:24;8.07;;;5.10;;
54139;SDS011;40046;53.254;5.900;2023-09-08T12:12:51;5.70;;;4.50;;
54139;SDS011;40046;53.254;5.900;2023-09-08T12:15:32;8.07;;;4.70;;
54139;SDS011;40046;53.254;5.900;2023-09-08T12:17:59;5.88;;;4.75;;
54139;SDS011;40046;53.254;5.900;2023-09-08T12:20:25;7.75;;;4.90;;
54139;SDS011;40046;53.254;5.900;2023-09-08T12:22:52;7.25;;;4.72;;
54139;SDS011;40046;53.254;5.900;2023-09-08T12:25:18;8.63;;;5.57;;
54139;SDS011;40046;53.254;5.900;2023-09-08T12:27:45;7.35;;;4.95;;
54139;SDS011;40046;53.254;5.900;2023-09-08T12:30:18;7.95;;;5.75;;
54139;SDS011;40046;53.254;5.900;2023-09-08T12:32:48;6.53;;;5.15;;
54139;SDS011;40046;53.254;5.900;2023-09-08T12:35:21;6.47;;;4.78;;
54139;SDS011;40046;53.254;5.900;2023-09-08T12:37:57;5.38;;;4.88;;
54139;SDS011;40046;53.254;5.900;2023-09-08T12:40:27;9.18;;;5.07;;
54139;SDS011;40046;53.254;5.900;2023-09-08T12:42:53;8.30;;;5.03;;
54139;SDS011;40046;53.254;5.900;2023-09-08T12:45:21;7.10;;;4.80;;
54139;SDS011;40046;53.254;5.900;2023-09-08T12:47:51;7.68;;;5.25;;
54139;SDS011;40046;53.254;5.900;2023-09-08T12:50:17;8.27;;;6.05;;
54139;SDS011;40046;53.254;5.900;2023-09-08T12:52:44;9.60;;;5.18;;
54139;SDS011;40046;53.254;5.900;2023-09-08T12:55:10;7.97;;;4.93;;
54139;SDS011;40046;53.254;5.900;2023-09-08T12:57:36;8.10;;;5.10;;
54139;SDS011;40046;53.254;5.900;2023-09-08T13:00:03;8.82;;;5.80;;
54139;SDS011;40046;53.254;5.900;2023-09-08T13:02:29;8.30;;;5.50;;
54139;SDS011;40046;53.254;5.900;2023-09-08T13:04:55;5.25;;;4.75;;
54139;SDS011;40046;53.254;5.900;2023-09-08T13:07:23;8.02;;;5.10;;
54139;SDS011;40046;53.254;5.900;2023-09-08T13:09:49;6.78;;;5.40;;
54139;SDS011;40046;53.254;5.900;2023-09-08T13:12:16;5.60;;;4.78;;
54139;SDS011;40046;53.254;5.900;2023-09-08T13:14:42;9.05;;;5.57;;
54139;SDS011;40046;53.254;5.900;2023-09-08T13:17:09;7.10;;;4.93;;
54139;SDS011;40046;53.254;5.900;2023-09-08T13:19:36;7.65;;;5.00;;
54139;SDS011;40046;53.254;5.900;2023-09-08T13:22:05;5.70;;;4.20;;
54139;SDS011;40046;53.254;5.900;2023-09-08T13:24:31;7.20;;;5.05;;
54139;SDS011;40046;53.254;5.900;2023-09-08T13:26:59;6.78;;;4.53;;
54139;SDS011;40046;53.254;5.900;2023-09-08T13:29:26;7.72;;;4.88;;
54139;SDS011;40046;53.254;5.900;2023-09-08T13:31:52;8.70;;;4.80;;
54139;SDS011;40046;53.254;5.900;2023-09-08T13:34:19;8.45;;;5.32;;
54139;SDS011;40046;53.254;5.900;2023-09-08T13:36:46;7.18;;;5.05;;
54139;SDS011;40046;53.254;5.900;2023-09-08T13:39:12;6.25;;;5.32;;
54139;SDS011;40046;53.254;5.900;2023-09-08T13:41:45;5.45;;;4.85;;
54139;SDS011;40046;53.254;5.900;2023-09-08T13:46:37;5.65;;;5.05;;
54139;SDS011;40046;53.254;5.900;2023-09-08T13:49:03;9.93;;;5.40;;
54139;SDS011;40046;53.254;5.900;2023-09-08T13:51:30;9.98;;;5.38;;
54139;SDS011;40046;53.254;5.900;2023-09-08T13:53:56;7.22;;;5.18;;
54139;SDS011;40046;53.254;5.900;2023-09-08T13:56:22;5.63;;;5.00;;
54139;SDS011;40046;53.254;5.900;2023-09-08T13:58:48;7.55;;;5.10;;
54139;SDS011;40046;53.254;5.900;2023-09-08T14:01:15;8.77;;;5.10;;
54139;SDS011;40046;53.254;5.900;2023-09-08T14:03:41;7.53;;;4.38;;
54139;SDS011;40046;53.254;5.900;2023-09-08T14:06:07;7.22;;;4.70;;
54139;SDS011;40046;53.254;5.900;2023-09-08T14:08:34;5.80;;;4.65;;
54139;SDS011;40046;53.254;5.900;2023-09-08T14:11:00;6.68;;;5.40;;
54139;SDS011;40046;53.254;5.900;2023-09-08T14:13:26;6.05;;;4.40;;
54139;SDS011;40046;53.254;5.900;2023-09-08T14:15:52;6.25;;;4.45;;
54139;SDS011;40046;53.254;5.900;2023-09-08T14:18:18;8.43;;;4.47;;
54139;SDS011;40046;53.254;5.900;2023-09-08T14:20:44;7.85;;;4.28;;
54139;SDS011;40046;53.254;5.900;2023-09-08T14:23:11;8.43;;;5.13;;
54139;SDS011;40046;53.254;5.900;2023-09-08T14:25:37;7.38;;;5.85;;
54139;SDS011;40046;53.254;5.900;2023-09-08T14:28:03;7.13;;;4.50;;
54139;SDS011;40046;53.254;5.900;2023-09-08T14:30:29;7.15;;;5.22;;
54139;SDS011;40046;53.254;5.900;2023-09-08T14:32:56;6.22;;;4.60;;
54139;SDS011;40046;53.254;5.900;2023-09-08T14:35:22;12.73;;;4.72;;
54139;SDS011;40046;53.254;5.900;2023-09-08T14:37:48;8.30;;;4.53;;
54139;SDS011;40046;53.254;5.900;2023-09-08T14:40:15;7.38;;;5.22;;
54139;SDS011;40046;53.254;5.900;2023-09-08T14:42:41;6.10;;;4.63;;
54139;SDS011;40046;53.254;5.900;2023-09-08T14:45:07;6.85;;;5.20;;
54139;SDS011;40046;53.254;5.900;2023-09-08T14:47:34;10.68;;;5.80;;
54139;SDS011;40046;53.254;5.900;2023-09-08T14:50:00;8.90;;;5.13;;